createdAt,value
2018-09-02T00:00:25.709Z,0
2018-09-02T00:10:27.601Z,0
2018-09-02T00:20:27.301Z,0
2018-09-02T00:30:26.531Z,0
2018-09-02T00:40:26.591Z,0
2018-09-02T00:50:25.918Z,0
2018-09-02T01:00:25.967Z,0
2018-09-02T01:10:25.315Z,0
2018-09-02T01:20:26.858Z,0
2018-09-02T01:30:27.208Z,0
2018-09-02T01:40:26.488Z,0
2018-09-02T01:50:26.408Z,0
2018-09-02T02:00:27.435Z,0
2018-09-02T02:10:28.406Z,0
2018-09-02T02:20:26.888Z,0
2018-09-02T02:30:27.950Z,0
2018-09-02T02:40:25.659Z,0
2018-09-02T02:50:26.525Z,0
2018-09-02T03:00:27.243Z,0
2018-09-02T03:10:28.404Z,0
2018-09-02T03:20:25.365Z,0
2018-09-02T03:30:27.923Z,0
2018-09-02T03:40:27.952Z,0
2018-09-02T03:50:29.363Z,0
2018-09-02T03:59:52.013Z,0
2018-09-02T04:09:24.079Z,0
2018-09-02T04:19:24.028Z,0
2018-09-02T04:29:24.031Z,0
2018-09-02T04:39:24.077Z,0
2018-09-02T04:49:24.129Z,5
2018-09-02T05:10:09.557Z,15
2018-09-02T05:10:49.990Z,30
2018-09-02T05:20:50.129Z,35
2018-09-02T05:30:50.027Z,50
2018-09-02T05:40:50.087Z,60
2018-09-02T05:50:50.101Z,75
2018-09-02T06:01:00.057Z,80
2018-09-02T06:10:50.031Z,85
2018-09-02T06:20:50.069Z,90
2018-09-02T06:30:50.072Z,95
2018-09-02T06:40:50.263Z,95
2018-09-02T06:50:52.510Z,105
2018-09-02T07:00:50.295Z,105
2018-09-02T07:10:50.112Z,110
2018-09-02T07:20:52.244Z,110
2018-09-02T07:30:50.163Z,115
2018-09-02T07:40:50.686Z,120
2018-09-02T07:50:50.186Z,130
2018-09-02T08:00:50.157Z,165
2018-09-02T08:10:50.197Z,240
2018-09-02T08:20:50.133Z,245
2018-09-02T08:30:50.805Z,150
2018-09-02T08:40:50.199Z,120
2018-09-02T08:50:50.271Z,120
2018-09-02T09:00:50.193Z,120
2018-09-02T09:10:53.438Z,120
2018-09-02T09:20:50.279Z,115
2018-09-02T09:30:50.237Z,115
2018-09-02T09:40:50.219Z,120
2018-09-02T09:50:50.305Z,120
2018-09-02T10:00:50.256Z,120
2018-09-02T10:10:50.280Z,120
2018-09-02T10:20:50.241Z,125
2018-09-02T10:30:50.214Z,130
2018-09-02T10:40:50.207Z,145
2018-09-02T10:50:50.249Z,125
2018-09-02T11:00:50.212Z,125
2018-09-02T11:10:50.299Z,120
2018-09-02T11:20:50.229Z,125
2018-09-02T11:30:50.355Z,120
2018-09-02T11:40:50.268Z,120
2018-09-02T11:50:50.250Z,120
2018-09-02T12:00:50.410Z,120
2018-09-02T12:10:50.291Z,115
2018-09-02T12:20:50.222Z,115
2018-09-02T12:30:50.219Z,115
2018-09-02T12:40:50.348Z,115
2018-09-02T12:50:50.296Z,115
2018-09-02T13:00:50.263Z,115
2018-09-02T13:10:50.239Z,115
2018-09-02T13:20:50.261Z,115
2018-09-02T13:30:50.273Z,110
2018-09-02T13:40:50.541Z,110
2018-09-02T13:50:50.371Z,110
2018-09-02T14:00:50.277Z,110
2018-09-02T14:10:50.362Z,110
2018-09-02T14:20:50.386Z,110
2018-09-02T14:30:50.374Z,110
2018-09-02T14:40:50.453Z,110
2018-09-02T14:50:50.494Z,110
2018-09-02T15:00:50.432Z,105
2018-09-02T15:10:50.351Z,110
2018-09-02T15:20:50.289Z,120
2018-09-02T15:30:50.349Z,145
2018-09-02T15:40:50.640Z,170
2018-09-02T15:50:50.321Z,145
2018-09-02T16:00:50.346Z,65
2018-09-02T16:10:50.288Z,105
2018-09-02T16:20:55.561Z,100
2018-09-02T16:30:50.400Z,60
2018-09-02T16:40:50.387Z,45
2018-09-02T16:50:50.319Z,55
2018-09-02T17:00:50.271Z,55
2018-09-02T17:10:50.416Z,45
2018-09-02T17:20:50.356Z,25
2018-09-02T17:30:50.344Z,10
2018-09-02T17:40:50.316Z,10
2018-09-02T17:50:50.335Z,10
2018-09-02T18:00:50.512Z,5
2018-09-02T18:10:51.270Z,0
2018-09-02T18:20:51.214Z,0
2018-09-02T18:30:52.696Z,0
2018-09-02T18:40:52.629Z,0
2018-09-02T18:50:52.089Z,0
2018-09-02T19:00:51.159Z,0
2018-09-02T19:10:52.598Z,0
2018-09-02T19:20:51.091Z,0
2018-09-02T19:30:51.648Z,0
2018-09-02T19:40:51.265Z,0
2018-09-02T19:50:50.939Z,0
2018-09-02T20:00:50.721Z,0
2018-09-02T20:10:50.438Z,0
2018-09-02T20:20:50.401Z,0
2018-09-02T20:30:50.426Z,0
2018-09-02T20:40:50.433Z,0
2018-09-02T20:50:50.437Z,0
2018-09-02T21:00:50.490Z,0
2018-09-02T21:10:50.452Z,0
2018-09-02T21:20:50.572Z,0
2018-09-02T21:30:50.561Z,0
2018-09-02T21:40:50.662Z,0
2018-09-02T21:50:50.485Z,0
2018-09-02T22:00:50.520Z,0
2018-09-02T22:10:50.554Z,0
2018-09-02T22:20:50.551Z,0
2018-09-02T22:30:50.691Z,0
2018-09-02T22:40:50.627Z,0
2018-09-02T22:50:50.571Z,0
2018-09-02T23:00:50.580Z,0
2018-09-02T23:10:50.737Z,0
2018-09-02T23:20:50.702Z,0
2018-09-02T23:30:50.625Z,0
2018-09-02T23:40:50.633Z,0
2018-09-02T23:50:50.608Z,0
